• Join FlightAware (Why Join?)
  • Login
  • US Flag 
09:20AM EDT


 

Airport Tracker/Info


-or-


 

Live Flight TrackerFlight Track Log ✈ SKW7363 ✈ 17-Aug-2013 ✈ KCOD - KSLC

Flight Track Log - Related Links

Times and Time Zones

All times are in EDT time to prevent confusion due to time zone crossing. See the SKW7363 flight status page for this flight to view local times or setup timezone preferences in your user account.

Time Position Orientation Groundspeed Altitude Reporting Facility
EDT Latitude Longitude Course Direction KTS MPH feet Rate Location/Type
07:32PM 44.5383 -108.9964 159° South 165 190 6,000  Level Salt Lake Center
07:33PM 44.6006 -108.9725 15° North 211 243 8,000 1,860 Climbing Salt Lake Center
07:34PM 44.6675 -108.9681 North 225 259 9,900 2,160 Climbing Salt Lake Center
07:35PM 44.1749 -108.6975 158° South  Level FlightAware Approximate
07:35PM 44.7050 -109.0342 309° West 236 272 12,500  Level Salt Lake Center
07:36PM 44.0836 -108.6470 159° South  Level FlightAware Approximate
07:36PM 44.6503 -109.0400 184° South 260 299 13,900  Level Salt Lake Center
07:37PM 43.9921 -108.5972 159° South  Level FlightAware Approximate
07:37PM 44.5981 -108.9533 130° Southeast 287 330 15,300  Level Salt Lake Center
07:38PM 44.5175 -108.9081 158° South 307 353 16,900 1,260 Climbing Salt Lake Center
07:39PM 44.4328 -108.8564 156° South 325 374 18,000 1,380 Climbing Salt Lake Center
07:40PM 44.3256 -108.7942 157° South 343 395 19,800 1,320 Climbing Salt Lake Center
07:41PM 44.2347 -108.7425 158° South 351 404 20,800 960 Climbing Salt Lake Center
07:42PM 44.1411 -108.6894 158° South 358 412 21,800 1,020 Climbing Salt Lake Center
07:43PM 44.0444 -108.6331 157° South 371 427 23,000 1,020 Climbing Salt Lake Center
07:44PM 43.9472 -108.5769 157° South 378 435 24,000 900 Climbing Salt Lake Center
07:45PM 43.8489 -108.5208 158° South 383 441 24,900 840 Climbing Salt Lake Center
07:46PM 43.7494 -108.4644 158° South 386 444 25,800 840 Climbing Salt Lake Center
07:47PM 43.6272 -108.3947 158° South 395 455 26,700 780 Climbing Salt Lake Center
07:48PM 43.5247 -108.3389 158° South 396 456 27,400 540 Climbing Salt Lake Center
07:49PM 43.4281 -108.3839 199° South 383 441 27,900 720 Climbing Salt Lake Center
07:50PM 43.3744 -108.5119 240° Southwest 388 447 28,900 720 Climbing Salt Lake Center
07:51PM 43.3208 -108.6353 239° Southwest 380 437 29,400 480 Climbing Salt Lake Center
07:52PM 43.2667 -108.7617 240° Southwest 384 442 30,000 240 Climbing Salt Lake Center
07:53PM 43.2131 -108.8856 239° Southwest 380 437 30,000  Level Salt Lake Center
07:54PM 43.1592 -109.0111 240° Southwest 380 437 30,000  Level Salt Lake Center
07:55PM 43.0950 -109.1594 239° Southwest 378 435 30,000  Level Salt Lake Center
07:56PM 43.0425 -109.2819 240° Southwest 376 433 30,000  Level Salt Lake Center
07:57PM 42.9878 -109.4028 238° Southwest 374 430 30,000  Level Salt Lake Center
07:58PM 42.9386 -109.5169 240° Southwest 375 432 30,000  Level Salt Lake Center
07:59PM 42.8781 -109.6556 239° Southwest 379 436 30,000  Level Salt Lake Center
08:01PM 42.8253 -109.7728 238° Southwest 380 437 30,000  Level Salt Lake Center
08:02PM 42.7633 -109.9094 238° Southwest 381 438 30,000  Level Salt Lake Center
08:03PM 42.7106 -110.0289 239° Southwest 383 441 30,000  Level Salt Lake Center
08:04PM 42.6500 -110.1650 239° Southwest 382 440 30,000  Level Salt Lake Center
08:05PM 42.5956 -110.2842 238° Southwest 386 444 30,000  Level Salt Lake Center
08:06PM 42.5414 -110.4050 239° Southwest 393 452 30,000  Level Salt Lake Center
08:07PM 42.4769 -110.5469 238° Southwest 395 455 30,000  Level Salt Lake Center
08:08PM 42.4222 -110.6647 238° Southwest 390 449 30,000  Level Salt Lake Center
08:09PM 42.3586 -110.8036 238° Southwest 389 448 30,000  Level Salt Lake Center
08:10PM 42.3053 -110.9206 238° Southwest 385 443 30,000  Level Salt Lake Center
08:11PM 42.2453 -111.0497 238° Southwest 390 449 30,000  Level Salt Lake Center
08:12PM 42.1886 -111.1717 238° Southwest 387 445 30,000  Level Salt Lake Center
08:13PM 42.1325 -111.2917 238° Southwest 383 441 30,000  Level Salt Lake Center
08:14PM 42.0753 -111.4125 237° Southwest 383 441 30,000 -720 Level Salt Lake Center
08:15PM 42.0186 -111.5325 238° Southwest 383 441 28,600 -1,920 Descending Salt Lake Center
08:16PM 41.9544 -111.6678 238° Southwest 362 417 26,200 -2,280 Descending Salt Lake Center
08:17PM 41.9042 -111.7742 238° Southwest 343 395 24,000 -2,160 Descending Salt Lake Center
08:18PM 41.8533 -111.8792 237° Southwest 341 392 21,800 -2,100 Descending Salt Lake Center
08:19PM 41.8042 -111.9842 238° Southwest 335 386 19,800 -1,920 Descending Salt Lake Center
08:20PM 41.7197 -112.0258 200° South 331 381 17,900 -1,860 Descending Salt Lake Center
08:21PM 41.6261 -112.0367 185° South 338 389 16,000 -1,440 Descending Salt Lake Center
08:22PM 41.5253 -112.0444 183° South 325 374 15,000 -900 Descending Salt Lake Center
08:23PM 41.4494 -112.0536 185° South 317 365 14,200 -1,320 Descending Salt Lake Center
08:24PM 41.3450 -112.0394 174° South 314 361 12,400 -1,440 Descending Salt Lake Center
08:25PM 41.2628 -112.0286 174° South 300 345 11,300 -1,320 Descending Salt Lake Center
08:26PM 41.1911 -112.0189 174° South 298 343 9,900 -1,080 Descending Salt Lake Center
08:27PM 41.0839 -112.0097 176° South 291 335 9,000 -720 Descending Salt Lake Center
08:28PM 41.0267 -112.0025 175° South 275 316 8,400 -1,200 Descending Salt Lake Center
08:29PM 40.9436 -111.9933 175° South 253 291 6,800 -1,320 Descending Salt Lake Center
08:30PM 40.8883 -111.9869 175° South 199 229 5,800 -900 Descending Salt Lake Center
08:31PM 40.8519 -112.0006 196° South 144 166 5,000 -660 Descending Salt Lake Center
08:32PM 40.8164 -111.9997 179° South 130 150 4,500 -540 Descending Salt Lake Center